Wetterdaten: aktuell Freitag, 19.04.2024 19:24
Datum Zeit Temp. A. Feuchte A. Luftdruck Regen Wind ET UV Solar Windben
19.04.2024 19:24 4,0 C 87 % 1002,5 hPa 0,0 l/m 6,4 km/h (2 Bft) 0,026 mm 0,0 UV-I 23 W/m 9,7 km/h (2 Bft)
19.04.2024 18:24 3,9 C 87 % 1002,9 hPa 0,0 l/m 7,7 km/h (2 Bft) 0,051 mm 0,0 UV-I 71 W/m 12,9 km/h (3 Bft)
19.04.2024 17:24 3,8 C 88 % 1002,9 hPa 0,0 l/m 8,0 km/h (2 Bft) 0,050 mm 0,0 UV-I 93 W/m 16,1 km/h (3 Bft)
19.04.2024 16:24 3,4 C 90 % 1003,6 hPa 0,3 l/m 13,4 km/h (3 Bft) 0,051 mm 0,0 UV-I 143 W/m 22,5 km/h (4 Bft)
19.04.2024 15:24 3,0 C 90 % 1004,1 hPa 2,0 l/m 12,9 km/h (3 Bft) 0,051 mm 0,0 UV-I 160 W/m 22,5 km/h (4 Bft)
19.04.2024 14:24 2,6 C 89 % 1004,8 hPa 3,0 l/m 14,7 km/h (3 Bft) 0,051 mm 0,0 UV-I 163 W/m 22,5 km/h (4 Bft)
19.04.2024 13:24 4,2 C 83 % 1005,1 hPa 0,5 l/m 17,8 km/h (3 Bft) 0,076 mm 0,0 UV-I 101 W/m 30,6 km/h (5 Bft)
19.04.2024 12:24 5,2 C 76 % 1005,7 hPa 0,0 l/m 17,8 km/h (3 Bft) 0,076 mm 0,0 UV-I 130 W/m 30,6 km/h (5 Bft)
19.04.2024 11:24 4,8 C 79 % 1007,0 hPa 0,0 l/m 10,3 km/h (2 Bft) 0,076 mm 0,0 UV-I 143 W/m 19,3 km/h (3 Bft)
19.04.2024 10:24 4,6 C 82 % 1008,1 hPa 0,0 l/m 10,7 km/h (2 Bft) 0,127 mm 0,0 UV-I 163 W/m 24,1 km/h (4 Bft)
19.04.2024 09:24 5,4 C 74 % 1009,3 hPa 0,0 l/m 15,4 km/h (3 Bft) 0,077 mm 0,0 UV-I 241 W/m 27,4 km/h (4 Bft)
19.04.2024 08:24 4,4 C 80 % 1010,1 hPa 0,0 l/m 9,1 km/h (2 Bft) 0,050 mm 0,0 UV-I 167 W/m 16,1 km/h (3 Bft)
19.04.2024 07:24 3,6 C 82 % 1010,9 hPa 0,0 l/m 7,1 km/h (2 Bft) 0,026 mm 0,0 UV-I 73 W/m 11,3 km/h (2 Bft)
19.04.2024 06:24 3,0 C 82 % 1011,4 hPa 0,0 l/m 6,7 km/h (2 Bft) 0,025 mm 0,0 UV-I 11 W/m 11,3 km/h (2 Bft)
19.04.2024 05:24 3,0 C 83 % 1012,2 hPa 0,3 l/m 8,5 km/h (2 Bft) 0,026 mm 0,0 UV-I 0 W/m 12,9 km/h (3 Bft)
19.04.2024 04:24 2,9 C 84 % 1013,1 hPa 0,0 l/m 7,7 km/h (2 Bft) 0,000 mm 0,0 UV-I 0 W/m 14,5 km/h (3 Bft)
19.04.2024 03:24 2,8 C 85 % 1014,0 hPa 0,0 l/m 3,3 km/h (1 Bft) 0,000 mm 0,0 UV-I 0 W/m 8,0 km/h (2 Bft)
19.04.2024 02:24 2,4 C 86 % 1014,5 hPa 0,0 l/m 1,3 km/h (1 Bft) 0,000 mm 0,0 UV-I 0 W/m 4,8 km/h (1 Bft)
19.04.2024 01:24 2,4 C 84 % 1015,3 hPa 0,0 l/m 0,0 km/h (0 Bft) 0,025 mm 0,0 UV-I 0 W/m 0,0 km/h (0 Bft)
19.04.2024 00:24 2,7 C 78 % 1015,8 hPa 0,0 l/m 5,9 km/h (2 Bft) 0,000 mm 0,0 UV-I 0 W/m 9,7 km/h (2 Bft)
18.04.2024 23:24 1,9 C 79 % 1015,7 hPa 0,0 l/m 0,0 km/h (0 Bft) 0,000 mm 0,0 UV-I 0 W/m 0,0 km/h (0 Bft)
18.04.2024 22:24 2,1 C 79 % 1016,1 hPa 0,0 l/m 0,0 km/h (0 Bft) 0,000 mm 0,0 UV-I 0 W/m 0,0 km/h (0 Bft)
18.04.2024 21:24 1,7 C 80 % 1016,0 hPa 0,0 l/m 0,0 km/h (0 Bft) 0,000 mm 0,0 UV-I 0 W/m 0,0 km/h (0 Bft)
18.04.2024 20:24 3,9 C 73 % 1015,9 hPa 0,0 l/m 0,0 km/h (0 Bft) 0,025 mm 0,0 UV-I 0 W/m 0,0 km/h (0 Bft)
18.04.2024 20:00 5,0 C 68 % 1015,9 hPa 0,0 l/m 0,0 km/h (0 Bft) 0,025 mm 0,0 UV-I 7 W/m 0,0 km/h (0 Bft)
_ Min-Zeit 21:24 20:00 19:18 - 20:00 - - - 20:00
Minimum _ 1,6 C 68 % 1002,4 hPa - 0,0 km/h (0 Bft) - - - 0,0 km/h (0 Bft)
_ Max-Zeit 09:06 14:54 21:32 04:54 11:10 10:00 20:00 09:54 12:34
Maximum _ 5,4 C 90 % 1016,2 hPa 0,3 l/m 21,6 km/h
N (4 Bft)
0,127 mm 0,0 UV-I 294 W/m 38,6 km/h
W (5 Bft)
Durchschnitt _ 3,5 C 81 % 1010,5 hPa #6,1 l/m 6,9 km/h (2 Bft) #0,864 mm 0,0 UV-I 115 W/m 12,5 km/h (3 Bft)